Portada
METAR-TAF:

METAR-TAF

Aeroports :

Avinyó, França

latitud: 43-54-26N, longitud: 004-54-07E, altitud: 38 m

Observació

L'informe es va fer fa 42 minuts, a les 17:30 UTC
Vent 1 kt del Est
Temperatura 17°C
Humitat 82%
Pressió 1018 hPa
Visibilitat: 8000 m

METAR: LFMV 191730Z AUTO 08001KT 8000 NSC 17/14 Q1018 NOSIG

Hora: 20:12 (18:12 UTC)

Pronòstic

L'informe es va fer fa 4 hores i 12 minuts, a les 14:00 UTC
Pronòstic vàlid del 19 a les 15 UTC al 20 a les 15 UTC
Vent 5 kt del Nord/Nord-Oest
Visibilitat 10 km o més
sense núvols per sota de 1500 mi sense presència de cumulonimbus.
Temporalment
l' 20 a les 02 UTC al 20 a les 09 UTC
Vent 2 kt amb direcció variable

TAF: LFMV 191400Z 1915/2015 34005KT CAVOK TEMPO 2002/2009 VRB02KT

Observacions i pronòstics meteorològics de més de 4000 aeroports (METAR i TAF).

Les estacions disponibles són els punts grocs i vermells al mapa.

Posi el ratolí al punt desitjat per veure el nom de l'estació.

Feu clic per veure les observacions i els pronòstics meteorològics.

Per canviar el mapa: feu clic els botons verds amb una creu de color negre per apropar; al botó verd amb un guió per allunyar la imatge; o en les fletxes verdes per a mapes adjacents.


METAR-TAF: